| time (UTC) | temp C | wind direction | speed KPH | gust KPH | rain 1hr cm | rain 24hr cm | rain mn cm | humidity % | barometer mb |
| 20260503224025 | 28 | 346 | 11.3 | 22.5 | 0.00 | 0.00 | 0.00 | 41 | 1010.3 |
| 20260503223528 | 28 | 335 | 11.3 | 19.3 | 0.00 | 0.00 | 0.00 | 41 | 1010.4 |
| 20260503223044 | 28 | 294 | 11.3 | 19.3 | 0.00 | 0.00 | 0.00 | 42 | 1010.6 |
| 20260503222526 | 28 | 326 | 11.3 | 17.7 | 0.00 | 0.00 | 0.00 | 42 | 1010.7 |
| 20260503222025 | 28 | 346 | 6.4 | 19.3 | 0.00 | 0.00 | 0.00 | 44 | 1010.8 |
| 20260503221551 | 27 | 338 | 11.3 | 20.9 | 0.00 | 0.00 | 0.00 | 41 | 1010.8 |
| 20260503221026 | 27 | 13 | 11.3 | 20.9 | 0.00 | 0.00 | 0.00 | 45 | 1010.9 |
| 20260503220528 | 28 | 336 | 6.4 | 16.1 | 0.00 | 0.00 | 0.00 | 42 | 1010.9 |
| 20260503220043 | 27 | 24 | 8.0 | 16.1 | 0.00 | 0.00 | 0.00 | 46 | 1011.0 |
| 20260503215526 | 27 | 55 | 6.4 | 20.9 | 0.00 | 0.00 | 0.00 | 45 | 1011.1 |
| 20260503215025 | 27 | 19 | 8.0 | 22.5 | 0.00 | 0.00 | 0.00 | 44 | 1011.2 |
| 20260503214540 | 27 | 327 | 9.7 | 22.5 | 0.00 | 0.00 | 0.00 | 44 | 1011.3 |
| 20260503214025 | 27 | 316 | 4.8 | 16.1 | 0.00 | 0.00 | 0.00 | 44 | 1011.3 |
| 20260503213525 | 27 | 121 | 3.2 | 20.9 | 0.00 | 0.00 | 0.00 | 47 | 1011.4 |
| 20260503213040 | 27 | 343 | 8.0 | 20.9 | 0.00 | 0.00 | 0.00 | 46 | 1011.4 |
| 20260503212525 | 27 | 29 | 9.7 | 20.9 | 0.00 | 0.00 | 0.00 | 43 | 1011.5 |
| 20260503212026 | 27 | 14 | 9.7 | 25.7 | 0.00 | 0.00 | 0.00 | 46 | 1011.5 |
| 20260503211539 | 27 | 34 | 9.7 | 25.7 | 0.00 | 0.00 | 0.00 | 44 | 1011.5 |
| 20260503211029 | 26 | 19 | 14.5 | 25.7 | 0.00 | 0.00 | 0.00 | 44 | 1011.6 |
| 20260503210529 | 27 | 22 | 9.7 | 22.5 | 0.00 | 0.00 | 0.00 | 47 | 1011.6 |
| 20260503210045 | 27 | 350 | 4.8 | 19.3 | 0.00 | 0.00 | 0.00 | 46 | 1011.7 |
| 20260503205523 | 26 | 349 | 4.8 | 19.3 | 0.00 | 0.00 | 0.00 | 50 | 1011.7 |
| 20260503205026 | 26 | 38 | 9.7 | 17.7 | 0.00 | 0.00 | 0.00 | 45 | 1011.7 |
| 20260503204544 | 26 | 15 | 4.8 | 17.7 | 0.00 | 0.00 | 0.00 | 48 | 1011.9 |
| 20260503204026 | 26 | 38 | 6.4 | 19.3 | 0.00 | 0.00 | 0.00 | 49 | 1011.8 |
| 20260503203530 | 26 | 309 | 9.7 | 22.5 | 0.00 | 0.00 | 0.00 | 48 | 1012.0 |
| 20260503203041 | 26 | 110 | 8.0 | 22.5 | 0.00 | 0.00 | 0.00 | 50 | 1012.0 |
| 20260503202526 | 26 | 42 | 11.3 | 22.5 | 0.00 | 0.00 | 0.00 | 47 | 1012.0 |
| 20260503202026 | 26 | 19 | 6.4 | 22.5 | 0.00 | 0.00 | 0.00 | 45 | 1012.1 |
| 20260503201541 | 26 | 309 | 6.4 | 22.5 | 0.00 | 0.00 | 0.00 | 49 | 1012.1 |
| 20260503201025 | 26 | 5 | 11.3 | 22.5 | 0.00 | 0.00 | 0.00 | 45 | 1012.2 |
| 20260503200525 | 26 | 19 | 6.4 | 22.5 | 0.00 | 0.00 | 0.00 | 49 | 1012.3 |
| 20260503200041 | 26 | 128 | 4.8 | 22.5 | 0.00 | 0.00 | 0.00 | 49 | 1012.4 |
| 20260503195526 | 25 | 303 | 8.0 | 22.5 | 0.00 | 0.00 | 0.00 | 47 | 1012.5 |
| 20260503195029 | 26 | 155 | 4.8 | 12.9 | 0.00 | 0.00 | 0.00 | 48 | 1012.6 |
| 20260503194542 | 25 | 107 | 4.8 | 12.9 | 0.00 | 0.00 | 0.00 | 52 | 1012.7 |
| 20260503194022 | 25 | 12 | 6.4 | 20.9 | 0.00 | 0.00 | 0.00 | 51 | 1012.8 |
| 20260503193528 | 25 | 68 | 8.0 | 20.9 | 0.00 | 0.00 | 0.00 | 51 | 1012.9 |
| 20260503193044 | 25 | 0 | 3.2 | 19.3 | 0.00 | 0.00 | 0.00 | 52 | 1013.0 |
| 20260503192523 | 25 | 333 | 6.4 | 19.3 | 0.00 | 0.00 | 0.00 | 52 | 1013.1 |
| 20260503192025 | 25 | 50 | 8.0 | 17.7 | 0.00 | 0.00 | 0.00 | 53 | 1013.2 |
| 20260503191542 | 24 | 31 | 6.4 | 17.7 | 0.00 | 0.00 | 0.00 | 53 | 1013.2 |
| 20260503191027 | 24 | 321 | 11.3 | 17.7 | 0.00 | 0.00 | 0.00 | 53 | 1013.2 |
| 20260503190524 | 24 | 351 | 6.4 | 17.7 | 0.00 | 0.00 | 0.00 | 55 | 1013.2 |
| 20260503190042 | 23 | 307 | 8.0 | 19.3 | 0.00 | 0.00 | 0.00 | 56 | 1013.3 |
| 20260503185524 | 24 | 342 | 6.4 | 19.3 | 0.00 | 0.00 | 0.00 | 52 | 1013.2 |
| 20260503185024 | 23 | 14 | 6.4 | 19.3 | 0.00 | 0.00 | 0.00 | 53 | 1013.3 |
| 20260503184540 | 23 | 73 | 8.0 | 19.3 | 0.00 | 0.00 | 0.00 | 56 | 1013.4 |
| 20260503184025 | 23 | 133 | 6.4 | 19.3 | 0.00 | 0.00 | 0.00 | 54 | 1013.4 |
| 20260503183525 | 23 | 22 | 6.4 | 16.1 | 0.00 | 0.00 | 0.00 | 56 | 1013.5 |
| 20260503183056 | 23 | 342 | 6.4 | 16.1 | 0.00 | 0.00 | 0.00 | 58 | 1013.5 |
| 20260503182525 | 23 | 71 | 6.4 | 19.3 | 0.00 | 0.00 | 0.00 | 57 | 1013.6 |
| 20260503182027 | 22 | 9 | 6.4 | 20.9 | 0.00 | 0.00 | 0.00 | 55 | 1013.6 |
| 20260503181554 | 22 | 316 | 6.4 | 20.9 | 0.00 | 0.00 | 0.00 | 56 | 1013.8 |
| 20260503181025 | 22 | 26 | 11.3 | 20.9 | 0.00 | 0.00 | 0.00 | 56 | 1013.7 |
| 20260503180525 | 22 | 333 | 8.0 | 20.9 | 0.00 | 0.00 | 0.00 | 57 | 1013.8 |
| 20260503180038 | 22 | 10 | 8.0 | 20.9 | 0.00 | 0.00 | 0.00 | 57 | 1013.9 |
| 20260503175525 | 22 | 339 | 9.7 | 20.9 | 0.00 | 0.00 | 0.00 | 56 | 1013.8 |
| 20260503175025 | 22 | 32 | 9.7 | 20.9 | 0.00 | 0.00 | 0.00 | 57 | 1013.9 |
| 20260503174543 | 21 | 327 | 14.5 | 20.9 | 0.00 | 0.00 | 0.00 | 58 | 1013.9 |
| 20260503174025 | 21 | 17 | 11.3 | 20.9 | 0.00 | 0.00 | 0.00 | 57 | 1013.9 |
| 20260503173525 | 21 | 322 | 11.3 | 20.9 | 0.00 | 0.00 | 0.00 | 58 | 1013.9 |
| 20260503173050 | 21 | 349 | 9.7 | 19.3 | 0.00 | 0.00 | 0.00 | 60 | 1013.9 |
| 20260503172529 | 21 | 40 | 8.0 | 19.3 | 0.00 | 0.00 | 0.00 | 60 | 1014.0 |
| 20260503172026 | 21 | 333 | 6.4 | 16.1 | 0.00 | 0.00 | 0.00 | 60 | 1013.9 |
| 20260503171542 | 21 | 28 | 6.4 | 20.9 | 0.00 | 0.00 | 0.00 | 62 | 1013.9 |
| 20260503171025 | 20 | 50 | 8.0 | 22.5 | 0.00 | 0.00 | 0.00 | 60 | 1014.1 |
| 20260503170525 | 20 | 321 | 11.3 | 22.5 | 0.00 | 0.00 | 0.00 | 63 | 1014.0 |
| 20260503150525 | 13 | 19 | 3.2 | 8.0 | 0.00 | 0.00 | 0.00 | 88 | 1014.4 |
| 20260503131028 | 7 | 0 | 0.0 | 1.6 | 0.00 | 0.00 | 0.00 | 97 | 1013.9 |
| 20260503130524 | 7 | 0 | 0.0 | 1.6 | 0.00 | 0.00 | 0.00 | 97 | 1013.8 |
| 20260503110526 | 8 | 0 | 0.0 | 1.6 | 0.00 | 0.00 | 0.00 | 96 | 1014.2 |
| 20260503081544 | 10 | 0 | 0.0 | 0.0 | 0.00 | 0.00 | 0.00 | 93 | 1014.5 |
| 20260503081026 | 10 | 0 | 0.0 | 0.0 | 0.00 | 0.00 | 0.00 | 93 | 1014.5 |
| 20260503080526 | 10 | 0 | 0.0 | 0.0 | 0.00 | 0.00 | 0.00 | 93 | 1014.5 |
| 20260503072527 | 10 | 0 | 0.0 | 1.6 | 0.00 | 0.00 | 0.00 | 93 | 1014.6 |
| 20260503072027 | 10 | 335 | 0.0 | 1.6 | 0.00 | 0.00 | 0.00 | 92 | 1014.7 |
| 20260503071541 | 10 | 0 | 0.0 | 1.6 | 0.00 | 0.00 | 0.00 | 92 | 1014.7 |
| 20260503071026 | 11 | 0 | 0.0 | 1.6 | 0.00 | 0.00 | 0.00 | 91 | 1014.6 |
| 20260503070526 | 11 | 0 | 0.0 | 1.6 | 0.00 | 0.00 | 0.00 | 92 | 1014.7 |
| 20260503055026 | 12 | 0 | 0.0 | 1.6 | 0.00 | 0.00 | 0.00 | 85 | 1014.4 |
| 20260503054543 | 13 | 0 | 0.0 | 0.0 | 0.00 | 0.00 | 0.00 | 85 | 1014.4 |
| 20260503054026 | 13 | 0 | 0.0 | 1.6 | 0.00 | 0.00 | 0.00 | 84 | 1014.4 |
| 20260503053526 | 13 | 0 | 0.0 | 1.6 | 0.00 | 0.00 | 0.00 | 82 | 1014.5 |
| 20260503053040 | 14 | 63 | 0.0 | 3.2 | 0.00 | 0.00 | 0.00 | 81 | 1014.5 |
| 20260503052528 | 14 | 63 | 0.0 | 3.2 | 0.00 | 0.00 | 0.00 | 79 | 1014.5 |
| 20260503052026 | 15 | 46 | 1.6 | 3.2 | 0.00 | 0.00 | 0.00 | 79 | 1014.5 |
| 20260503051548 | 15 | 11 | 1.6 | 3.2 | 0.00 | 0.00 | 0.00 | 78 | 1014.4 |
| 20260503051026 | 15 | 36 | 1.6 | 3.2 | 0.00 | 0.00 | 0.00 | 76 | 1014.4 |
| 20260503050526 | 15 | 49 | 1.6 | 3.2 | 0.00 | 0.00 | 0.00 | 76 | 1014.4 |
| 20260503050045 | 15 | 52 | 1.6 | 3.2 | 0.00 | 0.00 | 0.00 | 76 | 1014.4 |
| 20260503045526 | 15 | 49 | 1.6 | 4.8 | 0.00 | 0.00 | 0.00 | 76 | 1014.3 |
| 20260503045028 | 15 | 46 | 1.6 | 4.8 | 0.00 | 0.00 | 0.00 | 77 | 1014.2 |
| 20260503044543 | 15 | 26 | 1.6 | 3.2 | 0.00 | 0.00 | 0.00 | 77 | 1014.2 |
| 20260503044025 | 15 | 28 | 1.6 | 4.8 | 0.00 | 0.00 | 0.00 | 77 | 1014.2 |
| 20260503043525 | 16 | 13 | 1.6 | 4.8 | 0.00 | 0.00 | 0.00 | 76 | 1014.1 |
| 20260503043044 | 16 | 19 | 1.6 | 1.6 | 0.00 | 0.00 | 0.00 | 76 | 1014.1 |
| 20260503042526 | 16 | 30 | 0.0 | 3.2 | 0.00 | 0.00 | 0.00 | 75 | 1014.0 |
| 20260503042026 | 16 | 26 | 0.0 | 3.2 | 0.00 | 0.00 | 0.00 | 74 | 1014.0 |
| 20260503041540 | 16 | 22 | 1.6 | 3.2 | 0.00 | 0.00 | 0.00 | 72 | 1014.0 |
| 20260503041029 | 17 | 22 | 0.0 | 3.2 | 0.00 | 0.00 | 0.00 | 71 | 1013.9 |
| 20260503040526 | 17 | 22 | 0.0 | 1.6 | 0.00 | 0.00 | 0.00 | 71 | 1013.8 |
| 20260503040050 | 17 | 22 | 0.0 | 1.6 | 0.00 | 0.00 | 0.00 | 70 | 1013.7 |
| 20260503035527 | 17 | 22 | 0.0 | 3.2 | 0.00 | 0.00 | 0.00 | 70 | 1013.6 |
| 20260503035026 | 17 | 14 | 1.6 | 3.2 | 0.00 | 0.00 | 0.00 | 69 | 1013.6 |
| 20260503034546 | 17 | 18 | 0.0 | 3.2 | 0.00 | 0.00 | 0.00 | 69 | 1013.5 |
| 20260503034026 | 18 | 18 | 0.0 | 3.2 | 0.00 | 0.00 | 0.00 | 70 | 1013.4 |
| 20260503033525 | 18 | 9 | 0.0 | 1.6 | 0.00 | 0.00 | 0.00 | 68 | 1013.3 |
| 20260503033048 | 18 | 355 | 0.0 | 1.6 | 0.00 | 0.00 | 0.00 | 67 | 1013.3 |
| 20260503032526 | 19 | 355 | 0.0 | 1.6 | 0.00 | 0.00 | 0.00 | 63 | 1013.2 |
| 20260503032026 | 20 | 350 | 0.0 | 1.6 | 0.00 | 0.00 | 0.00 | 64 | 1013.1 |
| 20260503031540 | 20 | 16 | 0.0 | 3.2 | 0.00 | 0.00 | 0.00 | 62 | 1013.1 |
| 20260503031026 | 21 | 16 | 0.0 | 3.2 | 0.00 | 0.00 | 0.00 | 60 | 1013.1 |
| 20260503030526 | 21 | 21 | 1.6 | 4.8 | 0.00 | 0.00 | 0.00 | 57 | 1012.9 |
| 20260503030040 | 21 | 344 | 1.6 | 4.8 | 0.00 | 0.00 | 0.00 | 56 | 1012.9 |
| 20260503025526 | 22 | 10 | 0.0 | 3.2 | 0.00 | 0.00 | 0.00 | 55 | 1012.8 |
| 20260503025026 | 22 | 10 | 1.6 | 4.8 | 0.00 | 0.00 | 0.00 | 53 | 1012.8 |
| 20260503024540 | 22 | 339 | 1.6 | 8.0 | 0.00 | 0.00 | 0.00 | 53 | 1012.8 |
| 20260503024026 | 23 | 323 | 1.6 | 8.0 | 0.00 | 0.00 | 0.00 | 53 | 1012.6 |
| 20260503023526 | 23 | 26 | 1.6 | 8.0 | 0.00 | 0.00 | 0.00 | 51 | 1012.7 |
| 20260503023040 | 23 | 28 | 3.2 | 6.4 | 0.00 | 0.00 | 0.00 | 50 | 1012.6 |
| 20260503022527 | 23 | 326 | 3.2 | 14.5 | 0.00 | 0.00 | 0.00 | 50 | 1012.6 |
| 20260503022036 | 23 | 17 | 4.8 | 14.5 | 0.00 | 0.00 | 0.00 | 49 | 1012.6 |
| 20260503021543 | 23 | 15 | 4.8 | 12.9 | 0.00 | 0.00 | 0.00 | 49 | 1012.4 |
| 20260503021028 | 23 | 343 | 3.2 | 20.9 | 0.00 | 0.00 | 0.00 | 49 | 1012.5 |
| 20260503020526 | 23 | 16 | 8.0 | 20.9 | 0.00 | 0.00 | 0.00 | 49 | 1012.5 |
| 20260503020042 | 23 | 26 | 9.7 | 20.9 | 0.00 | 0.00 | 0.00 | 49 | 1012.5 |
| 20260503015525 | 23 | 13 | 6.4 | 14.5 | 0.00 | 0.00 | 0.00 | 49 | 1012.5 |
| 20260503015025 | 24 | 345 | 3.2 | 14.5 | 0.00 | 0.00 | 0.00 | 50 | 1012.5 |
| 20260503014542 | 24 | 344 | 3.2 | 11.3 | 0.00 | 0.00 | 0.00 | 48 | 1012.5 |
| 20260503014025 | 24 | 49 | 3.2 | 12.9 | 0.00 | 0.00 | 0.00 | 50 | 1012.4 |
| 20260503013526 | 24 | 41 | 6.4 | 16.1 | 0.00 | 0.00 | 0.00 | 49 | 1012.5 |
| 20260503013050 | 24 | 46 | 4.8 | 22.5 | 0.00 | 0.00 | 0.00 | 49 | 1012.5 |
| 20260503012527 | 24 | 86 | 3.2 | 22.5 | 0.00 | 0.00 | 0.00 | 50 | 1012.5 |
| 20260503012026 | 24 | 19 | 8.0 | 17.7 | 0.00 | 0.00 | 0.00 | 49 | 1012.6 |
| 20260503011543 | 24 | 26 | 4.8 | 12.9 | 0.00 | 0.00 | 0.00 | 49 | 1012.5 |
| 20260503011028 | 24 | 46 | 4.8 | 14.5 | 0.00 | 0.00 | 0.00 | 49 | 1012.6 |
| 20260503010528 | 24 | 40 | 3.2 | 14.5 | 0.00 | 0.00 | 0.00 | 48 | 1012.5 |
| 20260503005525 | 24 | 348 | 6.4 | 16.1 | 0.00 | 0.00 | 0.00 | 48 | 1012.5 |
| 20260503005028 | 25 | 360 | 4.8 | 16.1 | 0.00 | 0.00 | 0.00 | 49 | 1012.7 |
| 20260503004611 | 25 | 150 | 3.2 | 16.1 | 0.00 | 0.00 | 0.00 | 49 | 1012.7 |
| 20260503004026 | 25 | 27 | 3.2 | 11.3 | 0.00 | 0.00 | 0.00 | 51 | 1012.7 |
| 20260503003526 | 25 | 0 | 3.2 | 19.3 | 0.00 | 0.00 | 0.00 | 53 | 1012.7 |
| 20260503003041 | 24 | 19 | 4.8 | 19.3 | 0.00 | 0.00 | 0.00 | 52 | 1012.7 |
| 20260503002526 | 24 | 84 | 4.8 | 14.5 | 0.00 | 0.00 | 0.00 | 53 | 1012.7 |
| 20260503002026 | 24 | 67 | 3.2 | 11.3 | 0.00 | 0.00 | 0.00 | 53 | 1012.7 |
| 20260503001541 | 24 | 50 | 4.8 | 14.5 | 0.00 | 0.00 | 0.00 | 54 | 1012.8 |
| 20260503001026 | 24 | 327 | 4.8 | 19.3 | 0.00 | 0.00 | 0.00 | 53 | 1012.8 |
| 20260503000526 | 24 | 80 | 6.4 | 22.5 | 0.00 | 0.00 | 0.00 | 53 | 1012.9 |
| 20260503000042 | 24 | 105 | 3.2 | 22.5 | 0.00 | 0.00 | 0.00 | 55 | 1012.9 |
| 20260502235525 | 23 | 355 | 12.9 | 22.5 | 0.00 | 0.00 | 0.00 | 54 | 1012.9 |
| 20260502235029 | 24 | 342 | 9.7 | 19.3 | 0.00 | 0.00 | 0.00 | 53 | 1012.9 |
| 20260502234541 | 24 | 337 | 8.0 | 19.3 | 0.00 | 0.00 | 0.00 | 54 | 1013.0 |
| 20260502234026 | 24 | 13 | 9.7 | 20.9 | 0.00 | 0.00 | 0.00 | 52 | 1013.1 |
| 20260502233526 | 24 | 16 | 8.0 | 22.5 | 0.00 | 0.00 | 0.00 | 52 | 1013.0 |
| 20260502233039 | 24 | 36 | 9.7 | 24.1 | 0.00 | 0.00 | 0.00 | 53 | 1013.2 |
| 20260502232528 | 24 | 10 | 14.5 | 24.1 | 0.00 | 0.00 | 0.00 | 51 | 1013.2 |
| 20260502232026 | 24 | 67 | 9.7 | 22.5 | 0.00 | 0.00 | 0.00 | 52 | 1013.3 |
| 20260502231546 | 24 | 38 | 9.7 | 20.9 | 0.00 | 0.00 | 0.00 | 52 | 1013.4 |
| 20260502231026 | 24 | 18 | 6.4 | 17.7 | 0.00 | 0.00 | 0.00 | 52 | 1013.5 |
| 20260502230526 | 24 | 350 | 6.4 | 20.9 | 0.00 | 0.00 | 0.00 | 53 | 1013.6 |
| 20260502230044 | 24 | 94 | 8.0 | 20.9 | 0.00 | 0.00 | 0.00 | 54 | 1013.7 |
| 20260502225525 | 24 | 329 | 4.8 | 19.3 | 0.00 | 0.00 | 0.00 | 55 | 1013.8 |
| 20260502225025 | 24 | 343 | 3.2 | 19.3 | 0.00 | 0.00 | 0.00 | 56 | 1013.8 |
| 20260502224543 | 23 | 5 | 11.3 | 19.3 | 0.00 | 0.00 | 0.00 | 55 | 1013.8 |